TimeCST,TemperatureF,Dew PointF,Humidity,Sea Level PressureIn,VisibilityMPH,Wind Direction,Wind SpeedMPH,Gust SpeedMPH,PrecipitationIn,Events,Conditions,WindDirDegrees,DateUTC
12:54 AM,42.8,35.6,76,30.05,10.0,SE,6.9,-,N/A,,Clear,140,2012-12-01 06:54:00
1:54 AM,46.4,37.4,71,30.06,10.0,SSE,5.8,-,N/A,,Clear,160,2012-12-01 07:54:00
2:54 AM,48.2,41.0,76,30.06,10.0,South,6.9,-,N/A,,Clear,170,2012-12-01 08:54:00
3:54 AM,48.9,42.1,77,30.05,10.0,South,6.9,-,N/A,,Clear,180,2012-12-01 09:54:00
4:54 AM,46.9,42.1,83,30.05,9.0,South,5.8,-,N/A,,Clear,180,2012-12-01 10:54:00
5:54 AM,48.0,44.1,86,30.04,9.0,South,8.1,-,N/A,,Clear,180,2012-12-01 11:54:00
6:54 AM,46.9,44.1,90,30.03,7.0,South,8.1,-,N/A,,Clear,180,2012-12-01 12:54:00
7:54 AM,50.0,46.0,86,30.02,6.0,South,8.1,-,N/A,,Clear,180,2012-12-01 13:54:00
8:54 AM,51.8,48.2,88,30.00,5.0,South,11.5,-,N/A,,Clear,170,2012-12-01 14:54:00
9:54 AM,55.0,50.0,83,30.01,7.0,South,11.5,-,N/A,,Overcast,170,2012-12-01 15:54:00
10:13 AM,57.2,51.8,82,30.00,8.0,South,12.7,-,N/A,,Overcast,180,2012-12-01 16:13:00
10:54 AM,57.2,51.8,82,29.99,8.0,South,13.8,-,N/A,,Overcast,180,2012-12-01 16:54:00
11:54 AM,59.0,52.0,78,29.97,9.0,South,12.7,18.4,N/A,,Overcast,180,2012-12-01 17:54:00
12:54 PM,61.0,52.0,72,29.94,10.0,South,11.5,-,N/A,,Overcast,180,2012-12-01 18:54:00
1:04 PM,62.6,51.8,68,29.93,10.0,South,9.2,-,N/A,,Overcast,170,2012-12-01 19:04:00
1:28 PM,62.6,53.6,72,29.92,10.0,South,9.2,-,N/A,,Overcast,170,2012-12-01 19:28:00
1:54 PM,62.6,53.6,72,29.91,10.0,South,6.9,-,N/A,,Overcast,170,2012-12-01 19:54:00
2:54 PM,63.0,54.0,72,29.90,10.0,South,11.5,-,N/A,,Overcast,190,2012-12-01 20:54:00
3:26 PM,62.6,53.6,72,29.90,10.0,South,8.1,-,N/A,,Overcast,190,2012-12-01 21:26:00
3:54 PM,62.1,54.0,75,29.90,10.0,South,6.9,-,N/A,,Overcast,190,2012-12-01 21:54:00
4:54 PM,64.0,54.0,70,29.89,10.0,South,11.5,-,N/A,,Overcast,180,2012-12-01 22:54:00
5:54 PM,64.0,54.0,70,29.88,10.0,South,10.4,19.6,N/A,,Overcast,190,2012-12-01 23:54:00
6:54 PM,64.0,54.0,70,29.88,10.0,South,11.5,-,N/A,,Overcast,180,2012-12-02 00:54:00
7:54 PM,64.0,54.0,70,29.88,10.0,South,12.7,-,N/A,,Overcast,180,2012-12-02 01:54:00
8:54 PM,64.0,54.0,70,29.87,10.0,South,15.0,19.6,N/A,,Overcast,190,2012-12-02 02:54:00
9:54 PM,64.0,54.0,70,29.87,10.0,South,12.7,-,N/A,,Overcast,170,2012-12-02 03:54:00
10:54 PM,63.0,53.1,70,29.87,10.0,South,15.0,21.9,N/A,,Overcast,190,2012-12-02 04:54:00
11:54 PM,61.0,53.1,75,29.88,10.0,South,10.4,-,N/A,,Overcast,190,2012-12-02 05:54:00